Time;durP1;ratioP1;P1;durP2;ratioP2;P2;SDS_P1;SDS_P2;PMS_P1;PMS_P2;Temp;Humidity;BMP_temperature;BMP_pressure;BME280_temperature;BME280_humidity;BME280_pressure;Samples;Min_cycle;Max_cycle;Signal;HPM_P1;HPM_P2
2024/02/01 05:01:16;;;;;;;1.03;1.03;;;5.50;97.30;;;;;;5757581;23;20487;-91
2024/02/01 05:03:44;;;;;;;1.33;1.23;;;5.50;97.30;;;;;;5036348;28;20466;-92
2024/02/01 05:06:37;;;;;;;1.03;0.93;;;5.50;97.30;;;;;;5035812;28;20214;-94
2024/02/01 05:09:36;;;;;;;1.07;0.97;;;5.60;97.30;;;;;;5049175;28;20528;-92
2024/02/01 05:12:07;;;;;;;1.00;0.90;;;5.60;97.30;;;;;;5025946;28;20467;-93
2024/02/01 05:14:37;;;;;;;5.80;3.03;;;5.60;97.30;;;;;;5031187;28;20510;-93
2024/02/01 05:17:06;;;;;;;1.30;1.20;;;5.60;97.30;;;;;;5059353;28;20421;-93
2024/02/01 05:19:37;;;;;;;1.33;1.23;;;5.60;97.30;;;;;;5055621;28;20417;-93
2024/02/01 05:22:16;;;;;;;1.80;1.27;;;5.60;97.30;;;;;;5037732;28;20443;-93
2024/02/01 05:24:45;;;;;;;0.90;0.80;;;5.70;97.30;;;;;;5048367;28;20429;-92
2024/02/01 05:27:20;;;;;;;1.30;1.20;;;5.70;97.30;;;;;;5047017;28;20927;-91
2024/02/01 05:30:38;;;;;;;1.27;1.17;;;5.70;97.30;;;;;;5066554;28;20424;-92
2024/02/01 05:33:06;;;;;;;1.57;1.30;;;5.70;97.30;;;;;;5061090;28;20462;-94
2024/02/01 05:35:35;;;;;;;1.03;0.93;;;5.70;97.30;;;;;;5044415;28;20454;-92
2024/02/01 05:43:49;;;;;;;1.07;0.97;;;5.80;97.30;;;;;;5047621;28;20949;-72
2024/02/01 05:46:14;;;;;;;1.43;1.33;;;5.70;97.30;;;;;;5063139;28;20455;-72
2024/02/01 05:48:43;;;;;;;1.00;0.90;;;5.80;97.30;;;;;;5050791;28;20167;-73
2024/02/01 05:51:09;;;;;;;1.23;1.20;;;5.70;97.30;;;;;;5068374;28;20218;-72
2024/02/01 05:53:34;;;;;;;4.30;1.17;;;5.80;97.30;;;;;;5052318;28;20437;-71
2024/02/01 05:56:00;;;;;;;3.47;1.80;;;5.80;97.30;;;;;;5056255;28;21088;-72
2024/02/01 05:58:28;;;;;;;1.40;1.30;;;5.80;97.30;;;;;;5045043;28;20217;-72
2024/02/01 06:00:54;;;;;;;1.33;1.17;;;5.80;97.30;;;;;;5074406;28;20709;-72
2024/02/01 06:03:19;;;;;;;0.90;0.80;;;5.80;97.30;;;;;;5042825;28;20449;-71
2024/02/01 06:05:48;;;;;;;1.63;1.00;;;5.80;97.30;;;;;;5050509;28;20553;-72
2024/02/01 06:08:15;;;;;;;2.37;2.17;;;5.80;97.30;;;;;;5059592;28;20179;-70
2024/02/01 06:10:40;;;;;;;1.67;1.27;;;5.80;97.30;;;;;;5077305;28;20472;-74
2024/02/01 06:13:06;;;;;;;4.00;2.73;;;5.90;97.30;;;;;;5056863;28;20422;-73
2024/02/01 06:15:34;;;;;;;1.40;1.30;;;5.90;97.30;;;;;;5056385;28;20211;-73
2024/02/01 06:17:59;;;;;;;0.90;0.83;;;5.90;97.30;;;;;;5053856;28;20265;-72
2024/02/01 06:20:27;;;;;;;2.70;2.50;;;5.90;97.30;;;;;;5077395;28;20429;-72
2024/02/01 06:22:53;;;;;;;1.60;1.50;;;5.90;97.30;;;;;;5052749;28;20803;-72
2024/02/01 06:25:18;;;;;;;2.20;1.67;;;5.90;97.30;;;;;;5080571;28;20927;-71
2024/02/01 06:27:44;;;;;;;2.17;2.00;;;5.90;97.30;;;;;;5074810;28;20187;-71
2024/02/01 06:30:10;;;;;;;1.13;1.03;;;6.00;97.30;;;;;;5077394;28;20182;-71
2024/02/01 06:32:36;;;;;;;1.37;1.27;;;6.00;97.30;;;;;;5046201;28;20215;-72
2024/02/01 06:35:06;;;;;;;4.07;2.37;;;6.00;97.30;;;;;;5050302;28;20468;-71
2024/02/01 06:37:39;;;;;;;2.33;1.73;;;6.00;97.30;;;;;;5065018;28;20524;-70
2024/02/01 06:40:12;;;;;;;2.23;2.10;;;6.00;97.30;;;;;;5055174;28;20424;-71
2024/02/01 06:42:54;;;;;;;1.47;1.43;;;6.00;97.30;;;;;;5049975;28;20460;-71
2024/02/01 06:45:28;;;;;;;4.53;1.97;;;6.00;97.30;;;;;;5070779;28;20459;-71
2024/02/01 06:48:04;;;;;;;1.17;1.10;;;6.00;97.30;;;;;;5052597;28;20448;-72
2024/02/01 06:53:20;;;;;;;2.37;2.07;;;6.00;97.30;;;;;;5068056;28;20408;-71
2024/02/01 06:55:57;;;;;;;2.80;1.70;;;6.00;97.30;;;;;;5060538;28;20495;-71
2024/02/01 07:01:24;;;;;;;2.97;1.73;;;6.10;97.30;;;;;;5065435;28;20508;-73
2024/02/01 07:06:39;;;;;;;1.57;1.47;;;6.10;97.30;;;;;;5053804;28;20424;-69
2024/02/01 07:09:27;;;;;;;1.57;1.50;;;6.20;97.30;;;;;;5066395;28;20804;-70
2024/02/01 07:12:09;;;;;;;1.30;1.20;;;6.20;97.30;;;;;;5053021;28;20449;-79
2024/02/01 07:14:36;;;;;;;1.07;0.97;;;6.30;97.30;;;;;;5056970;28;21007;-72
2024/02/01 07:19:53;;;;;;;2.60;2.20;;;6.30;97.30;;;;;;5074662;28;20465;-71
2024/02/01 07:22:34;;;;;;;1.37;1.27;;;6.40;97.30;;;;;;5078557;28;20471;-70
2024/02/01 07:25:10;;;;;;;0.90;0.80;;;6.40;97.30;;;;;;5048664;28;20455;-71
2024/02/01 07:57:51;;;;;;;4.80;2.30;;;6.50;97.30;;;;;;5065461;28;20421;-71
2024/02/01 08:00:19;;;;;;;1.10;1.00;;;6.60;97.30;;;;;;5051100;28;20520;-70
2024/02/01 08:02:52;;;;;;;1.40;1.30;;;6.60;97.30;;;;;;5053102;28;20424;-71
2024/02/01 08:08:04;;;;;;;4.40;2.17;;;6.60;97.30;;;;;;5071619;28;20513;-72
2024/02/01 08:10:29;;;;;;;1.83;1.30;;;6.70;97.30;;;;;;5071163;28;20438;-71
2024/02/01 08:12:55;;;;;;;1.80;1.70;;;6.70;97.30;;;;;;5054828;28;20425;-71
2024/02/01 08:15:21;;;;;;;2.03;1.20;;;6.70;97.30;;;;;;5064768;28;20289;-71
2024/02/01 08:17:51;;;;;;;1.23;1.13;;;6.70;97.30;;;;;;5056118;28;20179;-71
2024/02/01 08:20:21;;;;;;;1.47;1.37;;;6.80;97.30;;;;;;5052565;28;20536;-70
2024/02/01 08:22:47;;;;;;;3.90;3.07;;;6.80;97.30;;;;;;5061560;28;20447;-70
2024/02/01 08:25:14;;;;;;;1.53;1.43;;;6.90;97.30;;;;;;5079208;28;20417;-70
2024/02/01 08:27:55;;;;;;;1.00;0.90;;;6.90;97.30;;;;;;5061400;28;20802;-71
2024/02/01 08:30:22;;;;;;;1.47;1.33;;;6.90;97.30;;;;;;5052946;28;20428;-81
2024/02/01 08:32:48;;;;;;;1.00;0.90;;;6.90;97.30;;;;;;5053301;28;20982;-70
2024/02/01 08:35:15;;;;;;;1.10;1.00;;;6.90;97.30;;;;;;5082635;28;20460;-69
2024/02/01 08:37:40;;;;;;;0.97;0.87;;;7.00;97.30;;;;;;5056455;28;20422;-69
2024/02/01 08:40:16;;;;;;;1.50;1.40;;;7.00;97.30;;;;;;5073293;28;21407;-70
2024/02/01 08:42:49;;;;;;;1.80;1.27;;;7.10;97.30;;;;;;5065147;28;20295;-68
2024/02/01 08:45:16;;;;;;;0.83;0.73;;;7.20;97.30;;;;;;5040009;28;20413;-69
2024/02/01 08:47:43;;;;;;;0.97;0.87;;;7.30;97.30;;;;;;5060751;28;20425;-70
2024/02/01 08:50:10;;;;;;;2.37;2.17;;;7.30;97.30;;;;;;5060625;28;20417;-70
2024/02/01 08:52:46;;;;;;;1.43;1.37;;;7.40;97.30;;;;;;5062674;28;20499;-70
2024/02/01 08:55:14;;;;;;;1.20;1.10;;;7.40;97.30;;;;;;5052864;28;20488;-70
2024/02/01 08:57:45;;;;;;;1.50;1.40;;;7.40;97.30;;;;;;5045511;28;20422;-70
2024/02/01 09:03:19;;;;;;;1.13;1.03;;;7.40;97.30;;;;;;5047701;28;20435;-74
2024/02/01 09:05:47;;;;;;;1.50;1.30;;;7.30;97.30;;;;;;5076469;28;20437;-69
2024/02/01 09:08:24;;;;;;;1.13;1.03;;;7.40;97.30;;;;;;5068833;28;20443;-69
2024/02/01 09:11:08;;;;;;;1.00;0.90;;;7.40;97.30;;;;;;5067449;28;20448;-70
2024/02/01 09:13:34;;;;;;;1.70;1.63;;;7.50;97.30;;;;;;5057696;28;20421;-71
2024/02/01 09:15:59;;;;;;;1.20;1.10;;;7.70;97.30;;;;;;5077762;28;20462;-69
2024/02/01 09:18:25;;;;;;;0.90;0.80;;;7.90;97.30;;;;;;5060000;28;20172;-70
2024/02/01 09:20:51;;;;;;;1.50;1.03;;;7.90;97.30;;;;;;5073136;28;20679;-70
2024/02/01 09:23:16;;;;;;;1.13;1.03;;;7.90;97.30;;;;;;5068294;28;20255;-69
2024/02/01 09:25:59;;;;;;;1.10;1.00;;;7.80;97.30;;;;;;5079463;28;20913;-68
2024/02/01 09:28:25;;;;;;;1.00;0.90;;;7.80;97.30;;;;;;5063834;28;20427;-70
2024/02/01 09:30:52;;;;;;;1.10;1.00;;;7.70;97.30;;;;;;5054103;28;20214;-71
2024/02/01 09:33:20;;;;;;;1.10;1.10;;;7.80;97.30;;;;;;5043913;28;20324;-71
2024/02/01 09:35:46;;;;;;;1.70;1.60;;;7.80;97.30;;;;;;5051823;28;20575;-69
2024/02/01 09:38:12;;;;;;;1.27;1.00;;;7.80;97.30;;;;;;5081391;28;20503;-69
2024/02/01 09:40:44;;;;;;;1.30;1.20;;;7.90;97.30;;;;;;5075134;28;20575;-69
2024/02/01 09:43:17;;;;;;;2.00;1.37;;;7.90;97.30;;;;;;5054043;28;20214;-70
2024/02/01 09:45:44;;;;;;;1.30;1.20;;;8.00;97.30;;;;;;5073349;28;20916;-71
2024/02/01 09:48:17;;;;;;;1.20;1.10;;;8.00;97.30;;;;;;5063134;28;20850;-71
2024/02/01 09:50:47;;;;;;;1.03;0.93;;;8.10;97.30;;;;;;5064359;28;20452;-71
2024/02/01 09:53:14;;;;;;;1.67;1.57;;;8.20;97.30;;;;;;5067858;28;20429;-69
2024/02/01 09:55:39;;;;;;;1.60;1.57;;;8.20;97.30;;;;;;5051410;28;20473;-69
2024/02/01 09:58:05;;;;;;;1.17;1.07;;;8.30;97.30;;;;;;5079142;28;20443;-70
2024/02/01 10:00:33;;;;;;;1.00;0.90;;;8.40;97.30;;;;;;5058109;28;20685;-68
2024/02/01 10:02:59;;;;;;;1.27;1.20;;;8.50;97.30;;;;;;5052361;28;20655;-68
2024/02/01 10:05:28;;;;;;;1.10;1.00;;;8.60;97.30;;;;;;5076460;28;20417;-70
2024/02/01 10:07:56;;;;;;;0.90;0.80;;;8.60;97.30;;;;;;5077680;28;20175;-69
2024/02/01 10:10:22;;;;;;;0.90;0.80;;;8.50;97.30;;;;;;5055872;28;20420;-70
2024/02/01 10:12:48;;;;;;;1.17;1.07;;;8.50;97.30;;;;;;5080877;28;20915;-69
2024/02/01 10:15:19;;;;;;;1.10;1.00;;;8.60;97.30;;;;;;5072705;28;20222;-69
2024/02/01 10:17:51;;;;;;;0.90;0.80;;;8.80;97.30;;;;;;5081066;28;20181;-69
2024/02/01 10:20:34;;;;;;;3.33;2.10;;;8.80;97.30;;;;;;5067758;28;20425;-68
2024/02/01 10:23:07;;;;;;;1.00;0.90;;;8.90;97.30;;;;;;5077511;28;20925;-69
2024/02/01 10:25:34;;;;;;;9.10;1.40;;;8.90;97.30;;;;;;5051665;28;20458;-67
2024/02/01 10:28:04;;;;;;;1.10;1.10;;;9.10;97.30;;;;;;5056652;28;20429;-66
2024/02/01 10:30:31;;;;;;;1.47;1.00;;;9.40;97.30;;;;;;5050971;28;20441;-65
2024/02/01 10:33:01;;;;;;;1.50;1.40;;;9.40;97.30;;;;;;5068633;28;20410;-67
2024/02/01 10:35:29;;;;;;;1.00;0.90;;;9.50;97.30;;;;;;5061590;28;20465;-66
2024/02/01 10:37:55;;;;;;;1.30;1.30;;;9.50;97.30;;;;;;5080507;28;20420;-65
2024/02/01 10:40:27;;;;;;;21.73;1.43;;;9.30;97.30;;;;;;5072220;28;20503;-65
2024/02/01 10:42:59;;;;;;;1.30;1.20;;;9.00;97.30;;;;;;5061987;28;20222;-72
2024/02/01 10:45:30;;;;;;;1.30;1.20;;;8.80;97.30;;;;;;5073053;28;20412;-69
2024/02/01 10:47:59;;;;;;;1.30;1.10;;;8.60;97.30;;;;;;5071962;28;20519;-68
2024/02/01 10:50:32;;;;;;;1.33;1.23;;;8.50;97.30;;;;;;5046958;28;20438;-70
2024/02/01 10:53:01;;;;;;;1.00;0.90;;;8.50;97.30;;;;;;5073493;28;20409;-68
2024/02/01 10:55:27;;;;;;;1.20;1.10;;;8.40;97.30;;;;;;5058896;28;20645;-71
2024/02/01 10:57:53;;;;;;;1.00;0.90;;;8.40;97.30;;;;;;5050154;28;21006;-66
2024/02/01 11:00:20;;;;;;;2.30;2.13;;;8.30;97.30;;;;;;5067867;28;20202;-69
2024/02/01 11:02:51;;;;;;;1.07;0.97;;;8.30;97.30;;;;;;5083501;28;20498;-69
2024/02/01 11:05:17;;;;;;;1.00;0.90;;;8.30;97.30;;;;;;5051336;28;20848;-68
2024/02/01 11:07:43;;;;;;;1.20;1.10;;;8.40;97.30;;;;;;5030543;28;20427;-70
2024/02/01 11:10:13;;;;;;;1.40;1.30;;;8.40;97.30;;;;;;5074328;28;20561;-69
2024/02/01 11:12:39;;;;;;;3.17;1.53;;;8.30;97.30;;;;;;5074215;28;20174;-67
2024/02/01 11:15:16;;;;;;;2.10;1.53;;;8.30;97.30;;;;;;5069270;28;20565;-67
2024/02/01 11:17:51;;;;;;;1.63;1.53;;;8.30;97.30;;;;;;5060063;28;21119;-87
2024/02/01 11:20:25;;;;;;;1.50;1.40;;;8.30;97.30;;;;;;5049222;28;20433;-89
2024/02/01 11:22:58;;;;;;;1.00;0.90;;;8.20;97.30;;;;;;5056339;28;20187;-88
2024/02/01 11:25:33;;;;;;;1.70;1.60;;;8.10;97.30;;;;;;5046328;28;20429;-88
2024/02/01 11:28:01;;;;;;;13.13;1.43;;;8.00;97.30;;;;;;5040893;28;20655;-87
2024/02/01 11:30:31;;;;;;;3.33;1.37;;;8.00;97.30;;;;;;5049359;23;20490;-78
2024/02/01 11:32:58;;;;;;;2.17;2.00;;;7.90;97.30;;;;;;5045607;28;20414;-75
2024/02/01 11:35:25;;;;;;;1.37;1.27;;;8.20;97.30;;;;;;5048008;28;20449;-74
2024/02/01 11:38:04;;;;;;;2.93;2.73;;;8.20;97.30;;;;;;5048568;28;20410;-83
2024/02/01 11:40:30;;;;;;;1.90;1.80;;;8.30;97.30;;;;;;5041737;28;20434;-78
2024/02/01 11:42:58;;;;;;;0.90;0.80;;;8.60;97.30;;;;;;5048381;28;20422;-77
2024/02/01 11:45:25;;;;;;;1.00;0.90;;;8.90;97.30;;;;;;5043156;28;20259;-81
2024/02/01 11:47:53;;;;;;;1.00;0.90;;;9.20;97.30;;;;;;5028220;28;20436;-80
2024/02/01 11:50:23;;;;;;;1.10;1.00;;;9.30;97.30;;;;;;5044864;28;20414;-74
2024/02/01 11:52:58;;;;;;;0.90;0.80;;;9.20;97.20;;;;;;5036810;28;20473;-81
2024/02/01 11:55:27;;;;;;;1.60;1.50;;;9.20;96.00;;;;;;5044600;28;20838;-83
2024/02/01 11:57:57;;;;;;;1.07;0.97;;;9.20;94.90;;;;;;5048448;28;20800;-78
2024/02/01 12:00:23;;;;;;;1.00;0.90;;;9.30;95.20;;;;;;5047162;28;20415;-77
2024/02/01 12:02:49;;;;;;;1.00;0.90;;;9.30;95.40;;;;;;5046220;28;20515;-74
2024/02/01 12:05:23;;;;;;;3.63;0.90;;;9.50;96.50;;;;;;5046628;28;20433;-79
2024/02/01 12:07:49;;;;;;;1.20;1.10;;;9.60;97.30;;;;;;5043037;28;21056;-79
2024/02/01 12:10:16;;;;;;;0.90;0.80;;;9.70;97.30;;;;;;5030010;28;20497;-78
2024/02/01 12:12:44;;;;;;;1.63;1.53;;;9.80;97.30;;;;;;5044177;28;20957;-78
2024/02/01 12:15:11;;;;;;;1.07;0.97;;;9.80;97.30;;;;;;5049257;28;20504;-80
2024/02/01 12:17:45;;;;;;;1.10;1.03;;;9.90;97.30;;;;;;5042354;28;20417;-76
2024/02/01 12:20:15;;;;;;;1.40;1.30;;;10.00;96.90;;;;;;5046211;28;20512;-79
2024/02/01 12:22:45;;;;;;;0.90;0.80;;;10.00;96.00;;;;;;5048888;28;20414;-77
2024/02/01 12:25:12;;;;;;;1.30;1.20;;;10.00;95.40;;;;;;5047566;28;20430;-74
2024/02/01 12:27:48;;;;;;;1.10;1.00;;;10.10;94.40;;;;;;5047313;28;20423;-80
2024/02/01 12:30:14;;;;;;;1.70;1.33;;;10.10;92.70;;;;;;5039190;28;20470;-72
2024/02/01 12:32:46;;;;;;;0.80;0.70;;;10.10;91.30;;;;;;5031816;28;20579;-82
2024/02/01 12:35:17;;;;;;;1.50;1.40;;;10.30;89.80;;;;;;5045901;28;20552;-76
2024/02/01 12:37:43;;;;;;;0.90;0.80;;;10.30;89.30;;;;;;5031114;28;20429;-80
2024/02/01 12:40:14;;;;;;;1.10;1.00;;;10.50;89.80;;;;;;5031179;28;20803;-79
2024/02/01 12:42:41;;;;;;;1.00;0.90;;;10.60;87.30;;;;;;5053743;28;20989;-78
2024/02/01 12:45:08;;;;;;;1.20;1.10;;;10.60;87.00;;;;;;5049317;28;20460;-76
2024/02/01 12:47:37;;;;;;;3.03;1.00;;;10.60;86.10;;;;;;5050311;28;20866;-85
2024/02/01 12:50:05;;;;;;;2.60;2.40;;;10.70;86.10;;;;;;5051450;28;20417;-78
2024/02/01 12:52:30;;;;;;;0.90;0.90;;;10.70;84.70;;;;;;5049474;28;20429;-82
2024/02/01 12:55:00;;;;;;;0.90;0.80;;;10.70;84.20;;;;;;5033335;28;20454;-81
2024/02/01 12:57:26;;;;;;;0.90;0.80;;;10.80;84.40;;;;;;5031403;28;20183;-83
2024/02/01 12:59:53;;;;;;;1.00;0.90;;;10.90;84.20;;;;;;5048910;28;20494;-80
2024/02/01 13:02:19;;;;;;;0.90;0.80;;;11.10;85.30;;;;;;5029293;28;20466;-80
2024/02/01 13:04:45;;;;;;;1.07;0.97;;;11.00;84.50;;;;;;5044444;28;20449;-76
2024/02/01 13:07:11;;;;;;;0.90;0.80;;;11.00;83.90;;;;;;5030846;28;20525;-78
2024/02/01 13:09:41;;;;;;;1.73;1.63;;;11.10;85.00;;;;;;5046197;28;20441;-80
2024/02/01 13:12:19;;;;;;;0.93;0.90;;;11.00;84.80;;;;;;5031564;28;20452;-74
2024/02/01 13:15:00;;;;;;;0.93;0.83;;;10.90;85.40;;;;;;5045254;28;20456;-81
2024/02/01 13:17:25;;;;;;;1.10;1.00;;;11.10;85.60;;;;;;5030441;28;20415;-78
2024/02/01 13:19:51;;;;;;;3.67;1.53;;;11.10;84.70;;;;;;5048447;28;20414;-84
2024/02/01 13:22:16;;;;;;;1.17;1.07;;;11.30;84.70;;;;;;5050800;28;20203;-78
2024/02/01 13:24:45;;;;;;;0.80;0.70;;;11.30;82.50;;;;;;5048578;28;20219;-78
2024/02/01 13:27:11;;;;;;;4.43;2.00;;;11.40;81.80;;;;;;5030653;28;20270;-80
2024/02/01 13:29:37;;;;;;;0.90;0.80;;;11.50;81.40;;;;;;5035508;28;20473;-78
2024/02/01 13:32:08;;;;;;;1.53;1.43;;;11.50;82.10;;;;;;5050903;28;20490;-82
2024/02/01 13:34:39;;;;;;;13.40;1.63;;;11.60;81.60;;;;;;5063008;28;20705;-78
2024/02/01 13:37:09;;;;;;;0.90;0.80;;;11.50;80.90;;;;;;5065424;28;20654;-77
2024/02/01 13:39:35;;;;;;;1.33;1.23;;;11.50;80.60;;;;;;5048839;28;20850;-78
2024/02/01 13:42:04;;;;;;;2.07;1.93;;;11.50;81.20;;;;;;5043596;28;20437;-77
2024/02/01 13:44:30;;;;;;;1.10;1.00;;;11.50;80.80;;;;;;5051941;28;20433;-78
2024/02/01 13:46:57;;;;;;;1.00;0.90;;;11.40;81.50;;;;;;5070268;28;20466;-79
2024/02/01 13:49:23;;;;;;;1.10;1.00;;;11.40;81.80;;;;;;5052018;28;20433;-81
2024/02/01 13:51:49;;;;;;;1.10;1.00;;;11.50;82.20;;;;;;5052103;28;20449;-81
2024/02/01 13:54:15;;;;;;;0.90;0.80;;;11.50;81.80;;;;;;5050008;28;20477;-77
2024/02/01 13:56:41;;;;;;;1.27;1.17;;;11.60;82.00;;;;;;5049674;28;20429;-81
2024/02/01 13:59:06;;;;;;;0.90;0.80;;;11.60;81.10;;;;;;5070702;28;20916;-76
2024/02/01 14:01:32;;;;;;;0.90;0.80;;;11.60;80.70;;;;;;5052349;28;20210;-75
2024/02/01 14:03:58;;;;;;;2.40;2.20;;;11.50;80.10;;;;;;5051503;28;20180;-81
2024/02/01 14:06:24;;;;;;;6.03;1.10;;;11.80;80.60;;;;;;5068224;28;20584;-73
2024/02/01 14:08:49;;;;;;;0.90;0.80;;;12.00;80.10;;;;;;5068874;28;20516;-75
2024/02/01 14:11:15;;;;;;;4.30;1.23;;;11.90;79.70;;;;;;5052456;28;20286;-81
2024/02/01 14:13:41;;;;;;;1.10;1.03;;;11.60;79.90;;;;;;5051421;28;20274;-74
2024/02/01 14:16:07;;;;;;;1.00;0.90;;;11.40;80.80;;;;;;5070112;28;20539;-77
2024/02/01 14:18:33;;;;;;;0.90;0.80;;;11.30;81.20;;;;;;5068586;28;20181;-80
2024/02/01 14:21:00;;;;;;;1.73;1.63;;;11.30;81.50;;;;;;5048167;28;20437;-69
2024/02/01 14:23:27;;;;;;;1.00;0.90;;;11.20;82.10;;;;;;5049670;28;20432;-75
2024/02/01 14:25:58;;;;;;;2.03;1.10;;;11.30;82.10;;;;;;5073118;28;20427;-73
2024/02/01 14:28:25;;;;;;;1.00;0.90;;;11.30;82.30;;;;;;5049515;28;20449;-75
2024/02/01 14:30:50;;;;;;;0.90;0.80;;;11.20;81.50;;;;;;5065645;28;20469;-81
2024/02/01 14:33:17;;;;;;;2.60;1.00;;;10.90;82.30;;;;;;5041240;28;20479;-81
2024/02/01 14:35:43;;;;;;;2.60;1.10;;;10.60;83.40;;;;;;5068822;28;20297;-81
2024/02/01 14:38:08;;;;;;;0.90;0.80;;;10.60;84.40;;;;;;5067972;28;20859;-78
2024/02/01 14:40:34;;;;;;;1.07;0.97;;;10.30;85.10;;;;;;5050514;28;20244;-78
2024/02/01 14:42:59;;;;;;;1.10;1.00;;;9.90;85.90;;;;;;5051352;28;20278;-77
2024/02/01 14:45:25;;;;;;;1.93;1.73;;;9.60;86.70;;;;;;5050402;28;20198;-75
2024/02/01 14:47:50;;;;;;;1.33;1.20;;;9.60;87.50;;;;;;5037154;28;20180;-81
2024/02/01 14:50:19;;;;;;;1.30;1.20;;;9.70;87.70;;;;;;5063393;28;20651;-77
2024/02/01 14:52:45;;;;;;;1.03;0.93;;;9.80;87.80;;;;;;5049251;28;20278;-81
2024/02/01 14:55:11;;;;;;;0.90;0.80;;;9.90;87.60;;;;;;5046440;28;21022;-76
2024/02/01 14:57:36;;;;;;;0.90;0.80;;;9.70;87.90;;;;;;5033582;28;20422;-74
2024/02/01 15:00:03;;;;;;;1.10;1.00;;;9.30;88.30;;;;;;5050410;28;20339;-69
2024/02/01 15:02:29;;;;;;;1.27;1.17;;;9.00;89.10;;;;;;5066533;28;20222;-70
2024/02/01 15:04:56;;;;;;;1.00;0.90;;;8.70;90.20;;;;;;5043804;28;20426;-75
2024/02/01 15:07:22;;;;;;;1.30;1.20;;;8.70;90.90;;;;;;5047087;28;20429;-71
2024/02/01 15:09:48;;;;;;;6.63;1.00;;;8.60;91.10;;;;;;5058680;28;20436;-73
2024/02/01 15:12:13;;;;;;;1.00;0.90;;;8.60;91.40;;;;;;5063837;28;20670;-75
2024/02/01 15:14:39;;;;;;;3.30;1.73;;;8.50;91.40;;;;;;5063141;28;20563;-75
2024/02/01 15:17:06;;;;;;;1.00;0.90;;;8.40;91.70;;;;;;5067213;28;20178;-85
2024/02/01 15:19:34;;;;;;;11.40;1.60;;;8.40;91.90;;;;;;5043000;28;20445;-71
2024/02/01 15:22:00;;;;;;;8.60;3.53;;;8.30;91.90;;;;;;5064714;28;20442;-71
2024/02/01 15:24:26;;;;;;;0.90;0.80;;;8.20;92.10;;;;;;5039751;28;20442;-71
2024/02/01 15:26:52;;;;;;;0.90;0.80;;;8.20;92.20;;;;;;5065890;28;20432;-71
2024/02/01 15:29:21;;;;;;;16.47;1.60;;;8.10;92.20;;;;;;5066897;28;20824;-70
2024/02/01 15:31:46;;;;;;;0.80;0.70;;;8.10;92.30;;;;;;5059244;28;20241;-71
2024/02/01 15:34:15;;;;;;;1.00;0.90;;;7.90;92.60;;;;;;5048440;28;20453;-72
2024/02/01 15:36:41;;;;;;;1.70;1.60;;;7.90;92.80;;;;;;5053763;28;20259;-79
2024/02/01 15:39:12;;;;;;;1.63;1.53;;;7.90;93.00;;;;;;5053857;28;20496;-70
2024/02/01 15:41:38;;;;;;;3.90;1.57;;;7.80;93.00;;;;;;5070533;28;20960;-69
2024/02/01 15:44:05;;;;;;;1.77;1.33;;;7.70;93.40;;;;;;5052624;28;20429;-71
2024/02/01 15:46:32;;;;;;;2.23;2.03;;;7.60;93.80;;;;;;5042341;28;20220;-70
2024/02/01 15:48:59;;;;;;;2.70;1.83;;;7.50;94.30;;;;;;5052815;28;20413;-74
2024/02/01 15:51:25;;;;;;;1.00;0.90;;;7.40;94.70;;;;;;5048045;28;20446;-70
2024/02/01 15:53:51;;;;;;;1.53;1.00;;;7.30;94.80;;;;;;5049039;28;20476;-70
2024/02/01 15:56:17;;;;;;;1.00;0.90;;;7.30;95.10;;;;;;5047707;28;20467;-70
2024/02/01 15:58:44;;;;;;;1.00;0.90;;;7.20;95.30;;;;;;5070891;28;20171;-71
2024/02/01 16:01:10;;;;;;;1.00;0.90;;;7.10;95.50;;;;;;5045718;28;20199;-69
2024/02/01 16:03:35;;;;;;;1.43;1.33;;;7.10;96.00;;;;;;5042797;28;20430;-70
2024/02/01 16:06:08;;;;;;;5.80;1.77;;;7.00;96.30;;;;;;5047262;28;20480;-71
2024/02/01 16:08:46;;;;;;;1.00;0.90;;;7.00;96.40;;;;;;5046237;28;20188;-71
2024/02/01 16:11:14;;;;;;;1.87;1.77;;;6.90;96.60;;;;;;5052810;28;20443;-76
2024/02/01 16:13:51;;;;;;;1.07;1.00;;;6.90;96.80;;;;;;5044446;28;20944;-69
2024/02/01 16:16:31;;;;;;;1.47;1.10;;;6.80;96.80;;;;;;5070606;28;21034;-72
2024/02/01 16:18:57;;;;;;;1.47;1.30;;;6.80;96.80;;;;;;5067986;28;20413;-71
2024/02/01 16:21:27;;;;;;;1.10;1.00;;;6.80;96.70;;;;;;5070248;28;20437;-72
2024/02/01 16:23:53;;;;;;;1.67;1.60;;;6.80;96.70;;;;;;5046812;28;20456;-71
2024/02/01 16:26:20;;;;;;;1.37;1.27;;;6.80;96.70;;;;;;5070575;28;20421;-70
2024/02/01 16:28:46;;;;;;;1.20;1.10;;;6.80;96.60;;;;;;5047717;28;20461;-76
2024/02/01 16:31:22;;;;;;;1.30;1.20;;;6.70;96.70;;;;;;5045357;28;20934;-71
2024/02/01 16:34:08;;;;;;;9.30;1.43;;;6.80;96.70;;;;;;5024701;28;20422;-83
2024/02/01 16:36:43;;;;;;;2.50;1.73;;;6.70;96.80;;;;;;5016097;28;20533;-69
2024/02/01 16:39:18;;;;;;;3.63;2.33;;;6.70;96.90;;;;;;5050409;28;20410;-73
2024/02/01 16:41:45;;;;;;;3.60;2.03;;;6.70;97.20;;;;;;5040014;28;21033;-81
2024/02/01 16:44:24;;;;;;;1.20;1.10;;;6.70;97.30;;;;;;5018060;28;20433;-71
2024/02/01 16:46:51;;;;;;;2.60;1.40;;;6.70;97.30;;;;;;5021111;28;20505;-71
2024/02/01 16:49:22;;;;;;;3.03;1.33;;;6.70;97.30;;;;;;5020284;28;20459;-82
2024/02/01 16:51:49;;;;;;;1.20;1.10;;;6.70;97.30;;;;;;5024299;28;20435;-69
2024/02/01 16:54:15;;;;;;;3.07;1.30;;;6.70;97.30;;;;;;5031475;28;20846;-74
2024/02/01 16:56:42;;;;;;;1.87;1.77;;;6.70;97.30;;;;;;5043558;28;20465;-71
2024/02/01 16:59:10;;;;;;;1.43;1.33;;;6.80;97.30;;;;;;5047450;28;20433;-70
2024/02/01 17:01:38;;;;;;;4.63;2.30;;;6.80;97.30;;;;;;5046467;28;20508;-69
2024/02/01 17:04:08;;;;;;;6.93;1.30;;;6.80;97.30;;;;;;5031302;28;20987;-68
2024/02/01 17:06:35;;;;;;;0.90;0.80;;;6.80;97.30;;;;;;5047515;28;20414;-71
2024/02/01 17:09:03;;;;;;;1.17;1.00;;;6.80;97.30;;;;;;5049452;28;20559;-69
2024/02/01 17:11:36;;;;;;;1.87;1.10;;;6.80;97.30;;;;;;5033733;28;20537;-82
2024/02/01 17:14:22;;;;;;;1.10;1.00;;;6.90;97.30;;;;;;5041159;28;20953;-73
2024/02/01 17:17:02;;;;;;;1.50;1.43;;;6.90;97.30;;;;;;5030730;28;20437;-70
2024/02/01 17:19:33;;;;;;;1.00;0.90;;;6.90;97.20;;;;;;5056308;28;20422;-68
2024/02/01 17:22:03;;;;;;;0.93;0.83;;;6.90;97.30;;;;;;5039013;28;20612;-72
2024/02/01 17:24:30;;;;;;;13.67;4.23;;;6.90;97.20;;;;;;5030905;28;20418;-71
2024/02/01 17:26:57;;;;;;;3.30;3.10;;;6.90;97.30;;;;;;5049377;28;20785;-70
2024/02/01 17:29:26;;;;;;;1.10;1.00;;;6.90;97.30;;;;;;5053229;28;20461;-70
2024/02/01 17:31:52;;;;;;;1.10;1.00;;;6.90;97.30;;;;;;5040684;28;20453;-69
2024/02/01 17:34:36;;;;;;;1.00;0.90;;;6.90;97.30;;;;;;5064328;28;20417;-72
2024/02/01 17:37:30;;;;;;;2.37;1.90;;;6.80;97.30;;;;;;5051187;28;20413;-70
2024/02/01 17:39:56;;;;;;;1.80;1.70;;;6.80;97.30;;;;;;5062808;28;20763;-71
2024/02/01 17:42:31;;;;;;;1.73;1.10;;;6.80;97.30;;;;;;5068756;28;20451;-70
2024/02/01 17:44:57;;;;;;;2.13;1.97;;;6.80;97.30;;;;;;5044622;28;20210;-70
2024/02/01 17:47:22;;;;;;;2.80;1.30;;;6.80;97.30;;;;;;5061431;28;20449;-70
2024/02/01 17:49:51;;;;;;;1.00;0.90;;;6.80;97.30;;;;;;5068890;28;20956;-71
2024/02/01 17:52:44;;;;;;;3.23;1.33;;;6.80;97.30;;;;;;5047659;28;20202;-72
2024/02/01 17:55:23;;;;;;;1.00;0.90;;;6.80;97.30;;;;;;5040518;28;20465;-70
2024/02/01 17:57:54;;;;;;;1.00;0.90;;;6.80;97.30;;;;;;5051033;28;20459;-69
2024/02/01 18:00:21;;;;;;;2.00;1.63;;;6.80;97.30;;;;;;5049407;28;20413;-74
2024/02/01 18:02:48;;;;;;;1.07;0.97;;;6.80;97.10;;;;;;5061325;28;20474;-69
2024/02/01 18:05:14;;;;;;;4.20;3.43;;;6.80;97.00;;;;;;5044116;28;20512;-70
2024/02/01 18:07:40;;;;;;;1.57;1.47;;;6.80;96.70;;;;;;5048868;28;20955;-69
2024/02/01 18:10:10;;;;;;;1.10;1.00;;;6.80;96.60;;;;;;5068510;28;20453;-69
2024/02/01 18:12:41;;;;;;;1.47;1.30;;;6.80;96.80;;;;;;5043369;28;20842;-69
2024/02/01 18:15:19;;;;;;;1.03;0.93;;;6.80;96.70;;;;;;5044980;28;20880;-71
2024/02/01 18:17:46;;;;;;;1.07;0.97;;;6.80;96.60;;;;;;5066496;28;20432;-69
2024/02/01 18:20:15;;;;;;;1.37;1.27;;;6.80;96.60;;;;;;5062134;28;20428;-70
2024/02/01 18:22:43;;;;;;;1.43;1.30;;;6.80;96.30;;;;;;5046945;28;20401;-71
2024/02/01 18:25:16;;;;;;;1.00;0.90;;;6.80;96.20;;;;;;5068027;28;20440;-73
2024/02/01 18:27:42;;;;;;;1.20;1.10;;;6.80;96.20;;;;;;5050237;28;20994;-72
2024/02/01 18:30:15;;;;;;;1.83;1.73;;;6.80;95.90;;;;;;5043513;28;20985;-71
2024/02/01 18:32:41;;;;;;;1.00;0.90;;;6.80;96.00;;;;;;5044667;28;20188;-70
2024/02/01 18:35:32;;;;;;;2.80;1.67;;;6.80;95.80;;;;;;5030833;28;20697;-72
2024/02/01 18:37:59;;;;;;;7.50;1.83;;;6.80;95.90;;;;;;5030774;28;20430;-71
2024/02/01 18:40:33;;;;;;;0.97;0.87;;;6.70;95.90;;;;;;5046374;28;20446;-71
2024/02/01 18:43:05;;;;;;;1.03;0.93;;;6.70;95.80;;;;;;5040594;28;20772;-70
2024/02/01 18:45:37;;;;;;;1.73;1.63;;;6.70;96.00;;;;;;5023906;28;20435;-71
2024/02/01 18:48:05;;;;;;;1.97;1.73;;;6.60;96.10;;;;;;5030818;28;20426;-70
2024/02/01 18:50:38;;;;;;;1.00;0.90;;;6.60;96.00;;;;;;5031865;28;20496;-71
2024/02/01 18:53:04;;;;;;;1.10;1.00;;;6.60;95.80;;;;;;5023162;28;20588;-71
2024/02/01 18:55:40;;;;;;;1.00;0.90;;;6.50;95.60;;;;;;5043882;28;20458;-71
2024/02/01 18:58:33;;;;;;;1.20;1.10;;;6.50;95.90;;;;;;5023240;28;20870;-71
2024/02/01 19:00:58;;;;;;;28.27;1.57;;;6.50;95.60;;;;;;5049153;28;20437;-71